sensor_id;sensor_type;location;lat;lon;timestamp;P1;durP1;ratioP1;P2;durP2;ratioP2
32637;SDS011;19045;52.268;10.506;2023-05-14T00:01:56;4.97;;;3.20;;
32637;SDS011;19045;52.268;10.506;2023-05-14T00:04:22;4.20;;;3.10;;
32637;SDS011;19045;52.268;10.506;2023-05-14T00:06:50;4.78;;;3.10;;
32637;SDS011;19045;52.268;10.506;2023-05-14T00:09:17;5.90;;;3.25;;
32637;SDS011;19045;52.268;10.506;2023-05-14T00:11:44;4.38;;;3.33;;
32637;SDS011;19045;52.268;10.506;2023-05-14T00:14:10;5.07;;;3.13;;
32637;SDS011;19045;52.268;10.506;2023-05-14T00:16:37;4.80;;;3.58;;
32637;SDS011;19045;52.268;10.506;2023-05-14T00:19:03;5.00;;;2.92;;
32637;SDS011;19045;52.268;10.506;2023-05-14T00:21:30;6.47;;;3.35;;
32637;SDS011;19045;52.268;10.506;2023-05-14T00:23:58;4.70;;;3.42;;
32637;SDS011;19045;52.268;10.506;2023-05-14T00:26:28;8.70;;;3.50;;
32637;SDS011;19045;52.268;10.506;2023-05-14T00:28:54;4.85;;;3.30;;
32637;SDS011;19045;52.268;10.506;2023-05-14T00:31:21;3.42;;;3.10;;
32637;SDS011;19045;52.268;10.506;2023-05-14T00:33:48;4.20;;;3.38;;
32637;SDS011;19045;52.268;10.506;2023-05-14T00:36:14;3.00;;;2.67;;
32637;SDS011;19045;52.268;10.506;2023-05-14T00:38:41;4.93;;;3.55;;
32637;SDS011;19045;52.268;10.506;2023-05-14T00:41:09;3.85;;;3.17;;
32637;SDS011;19045;52.268;10.506;2023-05-14T00:43:36;5.97;;;3.90;;
32637;SDS011;19045;52.268;10.506;2023-05-14T00:46:02;6.97;;;3.83;;
32637;SDS011;19045;52.268;10.506;2023-05-14T00:48:30;9.07;;;4.22;;
32637;SDS011;19045;52.268;10.506;2023-05-14T00:50:56;7.90;;;3.90;;
32637;SDS011;19045;52.268;10.506;2023-05-14T00:53:23;5.47;;;4.18;;
32637;SDS011;19045;52.268;10.506;2023-05-14T00:55:50;5.40;;;4.40;;
32637;SDS011;19045;52.268;10.506;2023-05-14T00:58:19;5.05;;;3.92;;
32637;SDS011;19045;52.268;10.506;2023-05-14T01:00:47;4.38;;;3.53;;
32637;SDS011;19045;52.268;10.506;2023-05-14T01:03:13;4.78;;;4.28;;
32637;SDS011;19045;52.268;10.506;2023-05-14T01:05:42;7.75;;;4.57;;
32637;SDS011;19045;52.268;10.506;2023-05-14T01:08:22;5.20;;;3.90;;
32637;SDS011;19045;52.268;10.506;2023-05-14T01:10:58;4.70;;;3.80;;
32637;SDS011;19045;52.268;10.506;2023-05-14T01:13:32;6.25;;;3.92;;
32637;SDS011;19045;52.268;10.506;2023-05-14T01:16:04;7.45;;;3.85;;
32637;SDS011;19045;52.268;10.506;2023-05-14T01:18:35;4.97;;;4.35;;
32637;SDS011;19045;52.268;10.506;2023-05-14T01:21:02;5.60;;;4.10;;
32637;SDS011;19045;52.268;10.506;2023-05-14T01:23:30;5.00;;;4.25;;
32637;SDS011;19045;52.268;10.506;2023-05-14T01:25:56;7.75;;;4.45;;
32637;SDS011;19045;52.268;10.506;2023-05-14T01:28:25;6.15;;;4.18;;
32637;SDS011;19045;52.268;10.506;2023-05-14T01:30:59;5.63;;;4.30;;
32637;SDS011;19045;52.268;10.506;2023-05-14T01:33:31;5.93;;;4.35;;
32637;SDS011;19045;52.268;10.506;2023-05-14T01:36:00;5.93;;;4.40;;
32637;SDS011;19045;52.268;10.506;2023-05-14T01:38:27;6.45;;;4.43;;
32637;SDS011;19045;52.268;10.506;2023-05-14T01:40:57;7.90;;;4.75;;
32637;SDS011;19045;52.268;10.506;2023-05-14T01:43:25;5.15;;;3.90;;
32637;SDS011;19045;52.268;10.506;2023-05-14T01:45:52;6.10;;;4.32;;
32637;SDS011;19045;52.268;10.506;2023-05-14T01:48:19;6.15;;;4.70;;
32637;SDS011;19045;52.268;10.506;2023-05-14T01:50:46;6.97;;;4.32;;
32637;SDS011;19045;52.268;10.506;2023-05-14T01:53:12;6.70;;;4.75;;
32637;SDS011;19045;52.268;10.506;2023-05-14T01:55:40;6.10;;;4.45;;
32637;SDS011;19045;52.268;10.506;2023-05-14T01:58:07;6.70;;;4.25;;
32637;SDS011;19045;52.268;10.506;2023-05-14T02:00:34;5.35;;;4.15;;
32637;SDS011;19045;52.268;10.506;2023-05-14T02:03:00;5.82;;;4.47;;
32637;SDS011;19045;52.268;10.506;2023-05-14T02:05:27;8.45;;;4.80;;
32637;SDS011;19045;52.268;10.506;2023-05-14T02:07:54;5.30;;;4.10;;
32637;SDS011;19045;52.268;10.506;2023-05-14T02:10:20;5.50;;;3.97;;
32637;SDS011;19045;52.268;10.506;2023-05-14T02:12:48;4.50;;;3.80;;
32637;SDS011;19045;52.268;10.506;2023-05-14T02:15:15;8.38;;;3.80;;
32637;SDS011;19045;52.268;10.506;2023-05-14T02:17:41;5.40;;;4.00;;
32637;SDS011;19045;52.268;10.506;2023-05-14T02:20:09;4.97;;;3.53;;
32637;SDS011;19045;52.268;10.506;2023-05-14T02:22:36;4.53;;;3.63;;
32637;SDS011;19045;52.268;10.506;2023-05-14T02:25:06;6.30;;;4.15;;
32637;SDS011;19045;52.268;10.506;2023-05-14T02:27:34;6.05;;;4.20;;
32637;SDS011;19045;52.268;10.506;2023-05-14T02:30:02;6.03;;;4.10;;
32637;SDS011;19045;52.268;10.506;2023-05-14T02:32:30;6.15;;;4.38;;
32637;SDS011;19045;52.268;10.506;2023-05-14T02:34:56;4.90;;;3.78;;
32637;SDS011;19045;52.268;10.506;2023-05-14T02:37:23;7.53;;;4.60;;
32637;SDS011;19045;52.268;10.506;2023-05-14T02:39:52;5.88;;;4.45;;
32637;SDS011;19045;52.268;10.506;2023-05-14T02:42:19;4.70;;;3.90;;
32637;SDS011;19045;52.268;10.506;2023-05-14T02:44:46;7.15;;;4.20;;
32637;SDS011;19045;52.268;10.506;2023-05-14T02:47:17;5.07;;;4.10;;
32637;SDS011;19045;52.268;10.506;2023-05-14T02:49:44;6.75;;;4.18;;
32637;SDS011;19045;52.268;10.506;2023-05-14T02:52:10;6.63;;;4.65;;
32637;SDS011;19045;52.268;10.506;2023-05-14T02:54:37;5.07;;;4.35;;
32637;SDS011;19045;52.268;10.506;2023-05-14T02:57:04;7.20;;;4.85;;
32637;SDS011;19045;52.268;10.506;2023-05-14T02:59:30;5.80;;;4.60;;
32637;SDS011;19045;52.268;10.506;2023-05-14T03:01:57;4.50;;;3.90;;
32637;SDS011;19045;52.268;10.506;2023-05-14T03:04:25;4.60;;;4.15;;
32637;SDS011;19045;52.268;10.506;2023-05-14T03:06:52;8.57;;;4.85;;
32637;SDS011;19045;52.268;10.506;2023-05-14T03:09:18;7.85;;;4.03;;
32637;SDS011;19045;52.268;10.506;2023-05-14T03:11:45;4.60;;;4.18;;
32637;SDS011;19045;52.268;10.506;2023-05-14T03:14:12;8.00;;;4.68;;
32637;SDS011;19045;52.268;10.506;2023-05-14T03:16:38;7.13;;;4.50;;
32637;SDS011;19045;52.268;10.506;2023-05-14T03:19:06;6.60;;;4.43;;
32637;SDS011;19045;52.268;10.506;2023-05-14T03:21:35;6.93;;;4.55;;
32637;SDS011;19045;52.268;10.506;2023-05-14T03:24:01;8.90;;;4.25;;
32637;SDS011;19045;52.268;10.506;2023-05-14T03:26:28;6.80;;;4.53;;
32637;SDS011;19045;52.268;10.506;2023-05-14T03:28:55;6.80;;;5.05;;
32637;SDS011;19045;52.268;10.506;2023-05-14T03:31:22;6.93;;;4.80;;
32637;SDS011;19045;52.268;10.506;2023-05-14T03:33:48;5.35;;;4.47;;
32637;SDS011;19045;52.268;10.506;2023-05-14T03:36:15;5.18;;;4.40;;
32637;SDS011;19045;52.268;10.506;2023-05-14T03:38:43;8.07;;;5.10;;
32637;SDS011;19045;52.268;10.506;2023-05-14T03:41:10;5.53;;;4.40;;
32637;SDS011;19045;52.268;10.506;2023-05-14T03:43:36;8.30;;;5.07;;
32637;SDS011;19045;52.268;10.506;2023-05-14T03:46:03;7.88;;;5.45;;
32637;SDS011;19045;52.268;10.506;2023-05-14T03:48:30;5.78;;;4.85;;
32637;SDS011;19045;52.268;10.506;2023-05-14T03:50:56;6.22;;;5.07;;
32637;SDS011;19045;52.268;10.506;2023-05-14T03:53:23;7.18;;;5.03;;
32637;SDS011;19045;52.268;10.506;2023-05-14T03:55:53;18.35;;;4.93;;
32637;SDS011;19045;52.268;10.506;2023-05-14T03:58:20;6.07;;;4.40;;
32637;SDS011;19045;52.268;10.506;2023-05-14T04:00:47;9.32;;;4.93;;
32637;SDS011;19045;52.268;10.506;2023-05-14T04:03:13;7.97;;;5.05;;
32637;SDS011;19045;52.268;10.506;2023-05-14T04:05:40;5.93;;;5.10;;
32637;SDS011;19045;52.268;10.506;2023-05-14T04:08:07;7.88;;;5.18;;
32637;SDS011;19045;52.268;10.506;2023-05-14T04:10:33;7.13;;;5.15;;
32637;SDS011;19045;52.268;10.506;2023-05-14T04:13:01;7.30;;;4.68;;
32637;SDS011;19045;52.268;10.506;2023-05-14T04:15:28;5.32;;;4.50;;
32637;SDS011;19045;52.268;10.506;2023-05-14T04:17:55;6.63;;;4.97;;
32637;SDS011;19045;52.268;10.506;2023-05-14T04:20:21;9.13;;;4.45;;
32637;SDS011;19045;52.268;10.506;2023-05-14T04:22:48;7.18;;;5.00;;
32637;SDS011;19045;52.268;10.506;2023-05-14T04:25:14;6.50;;;5.40;;
32637;SDS011;19045;52.268;10.506;2023-05-14T04:27:42;4.55;;;4.05;;
32637;SDS011;19045;52.268;10.506;2023-05-14T04:30:10;7.03;;;5.35;;
32637;SDS011;19045;52.268;10.506;2023-05-14T04:32:37;6.90;;;4.80;;
32637;SDS011;19045;52.268;10.506;2023-05-14T04:35:05;5.82;;;4.78;;
32637;SDS011;19045;52.268;10.506;2023-05-14T04:37:33;6.78;;;4.68;;
32637;SDS011;19045;52.268;10.506;2023-05-14T04:39:59;6.40;;;4.70;;
32637;SDS011;19045;52.268;10.506;2023-05-14T04:42:26;5.93;;;4.25;;
32637;SDS011;19045;52.268;10.506;2023-05-14T04:44:53;6.65;;;4.57;;
32637;SDS011;19045;52.268;10.506;2023-05-14T04:47:20;11.45;;;5.07;;
32637;SDS011;19045;52.268;10.506;2023-05-14T04:49:47;6.05;;;4.13;;
32637;SDS011;19045;52.268;10.506;2023-05-14T04:52:14;7.10;;;4.90;;
32637;SDS011;19045;52.268;10.506;2023-05-14T04:54:40;8.25;;;4.72;;
32637;SDS011;19045;52.268;10.506;2023-05-14T04:57:07;6.25;;;4.63;;
32637;SDS011;19045;52.268;10.506;2023-05-14T04:59:34;6.88;;;4.60;;
32637;SDS011;19045;52.268;10.506;2023-05-14T05:02:00;6.80;;;5.00;;
32637;SDS011;19045;52.268;10.506;2023-05-14T05:04:28;7.55;;;5.25;;
32637;SDS011;19045;52.268;10.506;2023-05-14T05:06:55;4.85;;;4.10;;
32637;SDS011;19045;52.268;10.506;2023-05-14T05:09:21;6.38;;;4.43;;
32637;SDS011;19045;52.268;10.506;2023-05-14T05:11:48;5.45;;;4.25;;
32637;SDS011;19045;52.268;10.506;2023-05-14T05:14:14;7.03;;;4.35;;
32637;SDS011;19045;52.268;10.506;2023-05-14T05:16:41;4.65;;;4.00;;
32637;SDS011;19045;52.268;10.506;2023-05-14T05:19:08;6.70;;;4.88;;
32637;SDS011;19045;52.268;10.506;2023-05-14T05:21:36;4.85;;;4.30;;
32637;SDS011;19045;52.268;10.506;2023-05-14T05:24:04;5.63;;;4.72;;
32637;SDS011;19045;52.268;10.506;2023-05-14T05:26:31;5.82;;;4.50;;
32637;SDS011;19045;52.268;10.506;2023-05-14T05:29:00;4.78;;;4.28;;
32637;SDS011;19045;52.268;10.506;2023-05-14T05:31:27;7.40;;;4.35;;
32637;SDS011;19045;52.268;10.506;2023-05-14T05:33:54;5.30;;;4.15;;
32637;SDS011;19045;52.268;10.506;2023-05-14T05:36:20;4.93;;;4.22;;
32637;SDS011;19045;52.268;10.506;2023-05-14T05:38:48;5.32;;;4.32;;
32637;SDS011;19045;52.268;10.506;2023-05-14T05:41:17;6.43;;;4.30;;
32637;SDS011;19045;52.268;10.506;2023-05-14T05:43:44;4.75;;;4.25;;
32637;SDS011;19045;52.268;10.506;2023-05-14T05:46:10;4.85;;;3.72;;
32637;SDS011;19045;52.268;10.506;2023-05-14T05:48:37;5.00;;;3.92;;
32637;SDS011;19045;52.268;10.506;2023-05-14T05:51:04;4.50;;;4.10;;
32637;SDS011;19045;52.268;10.506;2023-05-14T05:53:30;4.68;;;4.10;;
32637;SDS011;19045;52.268;10.506;2023-05-14T05:55:58;6.05;;;3.90;;
32637;SDS011;19045;52.268;10.506;2023-05-14T05:58:25;5.75;;;4.18;;
32637;SDS011;19045;52.268;10.506;2023-05-14T06:00:51;5.07;;;3.85;;
32637;SDS011;19045;52.268;10.506;2023-05-14T06:03:19;7.15;;;4.05;;
32637;SDS011;19045;52.268;10.506;2023-05-14T06:05:46;9.43;;;4.60;;
32637;SDS011;19045;52.268;10.506;2023-05-14T06:08:12;6.38;;;4.22;;
32637;SDS011;19045;52.268;10.506;2023-05-14T06:10:40;5.40;;;4.20;;
32637;SDS011;19045;52.268;10.506;2023-05-14T06:13:08;9.63;;;4.95;;
32637;SDS011;19045;52.268;10.506;2023-05-14T06:15:34;5.57;;;4.00;;
32637;SDS011;19045;52.268;10.506;2023-05-14T06:18:01;6.25;;;4.05;;
32637;SDS011;19045;52.268;10.506;2023-05-14T06:20:27;8.18;;;4.15;;
32637;SDS011;19045;52.268;10.506;2023-05-14T06:22:54;6.05;;;4.13;;
32637;SDS011;19045;52.268;10.506;2023-05-14T06:25:21;4.97;;;4.13;;
32637;SDS011;19045;52.268;10.506;2023-05-14T06:27:47;5.75;;;4.47;;
32637;SDS011;19045;52.268;10.506;2023-05-14T06:30:15;5.05;;;4.25;;
32637;SDS011;19045;52.268;10.506;2023-05-14T06:32:42;9.30;;;4.32;;
32637;SDS011;19045;52.268;10.506;2023-05-14T06:35:09;4.97;;;4.03;;
32637;SDS011;19045;52.268;10.506;2023-05-14T06:37:35;7.93;;;4.90;;
32637;SDS011;19045;52.268;10.506;2023-05-14T06:40:02;6.07;;;4.25;;
32637;SDS011;19045;52.268;10.506;2023-05-14T06:42:30;7.97;;;4.82;;
32637;SDS011;19045;52.268;10.506;2023-05-14T06:44:56;7.47;;;4.50;;
32637;SDS011;19045;52.268;10.506;2023-05-14T06:47:24;7.60;;;4.45;;
32637;SDS011;19045;52.268;10.506;2023-05-14T06:49:51;5.78;;;4.70;;
32637;SDS011;19045;52.268;10.506;2023-05-14T06:52:18;5.07;;;4.43;;
32637;SDS011;19045;52.268;10.506;2023-05-14T06:54:44;7.30;;;4.15;;
32637;SDS011;19045;52.268;10.506;2023-05-14T06:57:11;6.22;;;4.60;;
32637;SDS011;19045;52.268;10.506;2023-05-14T06:59:37;7.63;;;4.40;;
32637;SDS011;19045;52.268;10.506;2023-05-14T07:02:04;7.30;;;4.45;;
32637;SDS011;19045;52.268;10.506;2023-05-14T07:04:35;6.13;;;4.63;;
32637;SDS011;19045;52.268;10.506;2023-05-14T07:07:01;7.22;;;5.00;;
32637;SDS011;19045;52.268;10.506;2023-05-14T07:09:44;6.40;;;4.70;;
32637;SDS011;19045;52.268;10.506;2023-05-14T07:12:13;8.45;;;4.55;;
32637;SDS011;19045;52.268;10.506;2023-05-14T07:14:45;6.65;;;4.00;;
32637;SDS011;19045;52.268;10.506;2023-05-14T07:17:14;7.53;;;4.35;;
32637;SDS011;19045;52.268;10.506;2023-05-14T07:20:02;5.32;;;4.10;;
32637;SDS011;19045;52.268;10.506;2023-05-14T07:22:29;4.50;;;3.80;;
32637;SDS011;19045;52.268;10.506;2023-05-14T07:24:57;6.45;;;3.72;;
32637;SDS011;19045;52.268;10.506;2023-05-14T07:27:24;3.95;;;3.00;;
32637;SDS011;19045;52.268;10.506;2023-05-14T07:29:53;6.35;;;3.90;;
32637;SDS011;19045;52.268;10.506;2023-05-14T07:32:22;4.37;;;3.40;;
32637;SDS011;19045;52.268;10.506;2023-05-14T07:34:49;4.00;;;3.60;;
32637;SDS011;19045;52.268;10.506;2023-05-14T07:37:20;5.65;;;4.18;;
32637;SDS011;19045;52.268;10.506;2023-05-14T07:39:49;5.88;;;3.72;;
32637;SDS011;19045;52.268;10.506;2023-05-14T07:42:18;6.47;;;3.63;;
32637;SDS011;19045;52.268;10.506;2023-05-14T07:44:56;4.90;;;3.97;;
32637;SDS011;19045;52.268;10.506;2023-05-14T07:47:23;8.23;;;4.38;;
32637;SDS011;19045;52.268;10.506;2023-05-14T07:49:52;5.30;;;4.22;;
32637;SDS011;19045;52.268;10.506;2023-05-14T07:52:21;5.72;;;4.07;;
32637;SDS011;19045;52.268;10.506;2023-05-14T07:54:48;8.10;;;4.45;;
32637;SDS011;19045;52.268;10.506;2023-05-14T07:57:16;8.68;;;3.78;;
32637;SDS011;19045;52.268;10.506;2023-05-14T07:59:44;5.47;;;4.20;;
32637;SDS011;19045;52.268;10.506;2023-05-14T08:02:11;6.45;;;3.80;;
32637;SDS011;19045;52.268;10.506;2023-05-14T08:04:39;6.18;;;3.85;;
32637;SDS011;19045;52.268;10.506;2023-05-14T08:07:06;4.70;;;4.13;;
32637;SDS011;19045;52.268;10.506;2023-05-14T08:09:34;7.70;;;4.15;;
32637;SDS011;19045;52.268;10.506;2023-05-14T08:12:01;5.05;;;3.33;;
32637;SDS011;19045;52.268;10.506;2023-05-14T08:14:28;6.20;;;3.80;;
32637;SDS011;19045;52.268;10.506;2023-05-14T08:16:54;4.72;;;3.30;;
32637;SDS011;19045;52.268;10.506;2023-05-14T08:19:21;4.65;;;3.30;;
32637;SDS011;19045;52.268;10.506;2023-05-14T08:21:48;4.68;;;3.70;;
32637;SDS011;19045;52.268;10.506;2023-05-14T08:24:15;4.05;;;2.95;;
32637;SDS011;19045;52.268;10.506;2023-05-14T08:26:43;4.53;;;3.22;;
32637;SDS011;19045;52.268;10.506;2023-05-14T08:29:10;5.13;;;2.88;;
32637;SDS011;19045;52.268;10.506;2023-05-14T08:31:37;4.75;;;3.00;;
32637;SDS011;19045;52.268;10.506;2023-05-14T08:34:03;6.65;;;3.10;;
32637;SDS011;19045;52.268;10.506;2023-05-14T08:36:30;3.08;;;2.67;;
32637;SDS011;19045;52.268;10.506;2023-05-14T08:38:57;5.97;;;3.53;;
32637;SDS011;19045;52.268;10.506;2023-05-14T08:41:24;5.07;;;2.83;;
32637;SDS011;19045;52.268;10.506;2023-05-14T08:43:55;5.70;;;3.30;;
32637;SDS011;19045;52.268;10.506;2023-05-14T08:46:28;4.60;;;3.22;;
32637;SDS011;19045;52.268;10.506;2023-05-14T08:48:58;3.45;;;3.00;;
32637;SDS011;19045;52.268;10.506;2023-05-14T08:51:28;5.28;;;3.03;;
32637;SDS011;19045;52.268;10.506;2023-05-14T08:53:55;5.07;;;2.78;;
32637;SDS011;19045;52.268;10.506;2023-05-14T08:56:24;4.05;;;2.40;;
32637;SDS011;19045;52.268;10.506;2023-05-14T08:58:53;12.10;;;3.03;;
32637;SDS011;19045;52.268;10.506;2023-05-14T09:01:20;4.25;;;2.25;;
32637;SDS011;19045;52.268;10.506;2023-05-14T09:03:47;4.60;;;2.67;;
32637;SDS011;19045;52.268;10.506;2023-05-14T09:06:15;5.97;;;2.45;;
32637;SDS011;19045;52.268;10.506;2023-05-14T09:08:42;4.45;;;2.45;;
32637;SDS011;19045;52.268;10.506;2023-05-14T09:11:09;5.10;;;2.47;;
32637;SDS011;19045;52.268;10.506;2023-05-14T09:13:36;5.80;;;2.88;;
32637;SDS011;19045;52.268;10.506;2023-05-14T09:16:05;5.30;;;2.80;;
32637;SDS011;19045;52.268;10.506;2023-05-14T09:18:34;7.93;;;2.58;;
32637;SDS011;19045;52.268;10.506;2023-05-14T09:21:01;3.60;;;2.40;;
32637;SDS011;19045;52.268;10.506;2023-05-14T09:23:30;5.32;;;2.50;;
32637;SDS011;19045;52.268;10.506;2023-05-14T09:25:57;4.82;;;2.55;;
32637;SDS011;19045;52.268;10.506;2023-05-14T09:28:24;4.97;;;2.15;;
32637;SDS011;19045;52.268;10.506;2023-05-14T09:30:52;3.88;;;2.42;;
32637;SDS011;19045;52.268;10.506;2023-05-14T09:33:25;3.70;;;2.30;;
32637;SDS011;19045;52.268;10.506;2023-05-14T09:35:54;4.63;;;2.40;;
32637;SDS011;19045;52.268;10.506;2023-05-14T09:38:26;3.83;;;2.60;;
32637;SDS011;19045;52.268;10.506;2023-05-14T09:40:53;3.83;;;2.20;;
32637;SDS011;19045;52.268;10.506;2023-05-14T09:43:20;3.33;;;2.70;;
32637;SDS011;19045;52.268;10.506;2023-05-14T09:45:46;3.55;;;2.40;;
32637;SDS011;19045;52.268;10.506;2023-05-14T09:48:15;4.43;;;2.25;;
32637;SDS011;19045;52.268;10.506;2023-05-14T09:50:43;3.85;;;2.60;;
32637;SDS011;19045;52.268;10.506;2023-05-14T09:53:12;4.45;;;2.65;;
32637;SDS011;19045;52.268;10.506;2023-05-14T09:55:39;5.90;;;2.60;;
32637;SDS011;19045;52.268;10.506;2023-05-14T09:58:06;4.88;;;2.42;;
32637;SDS011;19045;52.268;10.506;2023-05-14T10:00:33;8.80;;;2.90;;
32637;SDS011;19045;52.268;10.506;2023-05-14T10:03:01;4.97;;;2.30;;
32637;SDS011;19045;52.268;10.506;2023-05-14T10:05:30;3.20;;;2.38;;
32637;SDS011;19045;52.268;10.506;2023-05-14T10:08:02;4.47;;;2.40;;
32637;SDS011;19045;52.268;10.506;2023-05-14T10:10:33;4.93;;;2.53;;
32637;SDS011;19045;52.268;10.506;2023-05-14T10:13:03;8.43;;;3.38;;
32637;SDS011;19045;52.268;10.506;2023-05-14T10:15:33;4.18;;;2.80;;
32637;SDS011;19045;52.268;10.506;2023-05-14T10:18:06;5.97;;;2.65;;
32637;SDS011;19045;52.268;10.506;2023-05-14T10:20:35;4.90;;;3.05;;
32637;SDS011;19045;52.268;10.506;2023-05-14T10:23:05;5.57;;;2.78;;
32637;SDS011;19045;52.268;10.506;2023-05-14T10:25:32;4.57;;;2.63;;
32637;SDS011;19045;52.268;10.506;2023-05-14T10:28:00;6.68;;;2.83;;
32637;SDS011;19045;52.268;10.506;2023-05-14T10:30:28;5.85;;;2.92;;
32637;SDS011;19045;52.268;10.506;2023-05-14T10:33:07;5.28;;;2.83;;
32637;SDS011;19045;52.268;10.506;2023-05-14T10:35:51;9.50;;;3.58;;
32637;SDS011;19045;52.268;10.506;2023-05-14T10:38:23;13.82;;;3.53;;
32637;SDS011;19045;52.268;10.506;2023-05-14T10:40:53;5.35;;;2.83;;
32637;SDS011;19045;52.268;10.506;2023-05-14T10:43:22;4.53;;;2.92;;
32637;SDS011;19045;52.268;10.506;2023-05-14T10:45:51;6.03;;;3.03;;
32637;SDS011;19045;52.268;10.506;2023-05-14T10:48:18;5.63;;;3.40;;
32637;SDS011;19045;52.268;10.506;2023-05-14T10:50:46;5.05;;;2.92;;
32637;SDS011;19045;52.268;10.506;2023-05-14T10:53:13;6.20;;;2.88;;
32637;SDS011;19045;52.268;10.506;2023-05-14T10:55:42;6.32;;;2.83;;
32637;SDS011;19045;52.268;10.506;2023-05-14T10:58:09;5.25;;;2.60;;
32637;SDS011;19045;52.268;10.506;2023-05-14T11:00:36;8.38;;;2.95;;
32637;SDS011;19045;52.268;10.506;2023-05-14T11:03:04;9.07;;;3.28;;
32637;SDS011;19045;52.268;10.506;2023-05-14T11:05:32;4.30;;;2.47;;
32637;SDS011;19045;52.268;10.506;2023-05-14T11:08:01;7.22;;;2.38;;
32637;SDS011;19045;52.268;10.506;2023-05-14T11:10:31;7.50;;;2.63;;
32637;SDS011;19045;52.268;10.506;2023-05-14T11:13:00;3.63;;;1.98;;
32637;SDS011;19045;52.268;10.506;2023-05-14T11:15:27;9.18;;;2.35;;
32637;SDS011;19045;52.268;10.506;2023-05-14T11:17:53;4.82;;;2.28;;
32637;SDS011;19045;52.268;10.506;2023-05-14T11:20:20;5.05;;;2.45;;
32637;SDS011;19045;52.268;10.506;2023-05-14T11:22:47;4.60;;;2.38;;
32637;SDS011;19045;52.268;10.506;2023-05-14T11:25:15;5.05;;;2.92;;
32637;SDS011;19045;52.268;10.506;2023-05-14T11:27:43;6.10;;;2.42;;
32637;SDS011;19045;52.268;10.506;2023-05-14T11:30:13;4.05;;;2.50;;
32637;SDS011;19045;52.268;10.506;2023-05-14T11:32:40;4.30;;;2.50;;
32637;SDS011;19045;52.268;10.506;2023-05-14T11:35:09;5.18;;;2.63;;
32637;SDS011;19045;52.268;10.506;2023-05-14T11:37:36;4.82;;;2.50;;
32637;SDS011;19045;52.268;10.506;2023-05-14T11:40:06;3.70;;;2.35;;
32637;SDS011;19045;52.268;10.506;2023-05-14T11:45:02;4.38;;;2.67;;
32637;SDS011;19045;52.268;10.506;2023-05-14T11:47:30;4.43;;;2.50;;
32637;SDS011;19045;52.268;10.506;2023-05-14T11:49:57;10.65;;;2.97;;
32637;SDS011;19045;52.268;10.506;2023-05-14T11:52:25;3.05;;;2.15;;
32637;SDS011;19045;52.268;10.506;2023-05-14T11:54:51;4.03;;;2.45;;
32637;SDS011;19045;52.268;10.506;2023-05-14T11:57:18;5.53;;;2.40;;
32637;SDS011;19045;52.268;10.506;2023-05-14T11:59:46;3.92;;;2.30;;
32637;SDS011;19045;52.268;10.506;2023-05-14T12:02:14;7.78;;;3.13;;
32637;SDS011;19045;52.268;10.506;2023-05-14T12:04:44;3.85;;;2.50;;
32637;SDS011;19045;52.268;10.506;2023-05-14T12:07:15;3.83;;;2.72;;
32637;SDS011;19045;52.268;10.506;2023-05-14T12:09:42;5.07;;;2.92;;
32637;SDS011;19045;52.268;10.506;2023-05-14T12:12:13;4.03;;;2.50;;
32637;SDS011;19045;52.268;10.506;2023-05-14T12:14:41;3.78;;;2.83;;
32637;SDS011;19045;52.268;10.506;2023-05-14T12:17:13;7.78;;;2.95;;
32637;SDS011;19045;52.268;10.506;2023-05-14T12:19:40;7.17;;;3.40;;
32637;SDS011;19045;52.268;10.506;2023-05-14T12:22:09;6.47;;;3.28;;
32637;SDS011;19045;52.268;10.506;2023-05-14T12:24:37;5.20;;;2.78;;
32637;SDS011;19045;52.268;10.506;2023-05-14T12:27:04;6.07;;;3.42;;
32637;SDS011;19045;52.268;10.506;2023-05-14T12:29:34;7.63;;;3.30;;
32637;SDS011;19045;52.268;10.506;2023-05-14T12:32:02;7.18;;;2.88;;
32637;SDS011;19045;52.268;10.506;2023-05-14T12:34:33;4.07;;;3.15;;
32637;SDS011;19045;52.268;10.506;2023-05-14T12:37:00;7.22;;;3.22;;
32637;SDS011;19045;52.268;10.506;2023-05-14T12:39:28;4.07;;;3.00;;
32637;SDS011;19045;52.268;10.506;2023-05-14T12:41:57;5.22;;;3.15;;
32637;SDS011;19045;52.268;10.506;2023-05-14T12:44:24;6.15;;;3.10;;
32637;SDS011;19045;52.268;10.506;2023-05-14T12:46:50;5.75;;;2.95;;
32637;SDS011;19045;52.268;10.506;2023-05-14T12:49:17;7.57;;;3.00;;
32637;SDS011;19045;52.268;10.506;2023-05-14T12:51:44;4.00;;;3.00;;
32637;SDS011;19045;52.268;10.506;2023-05-14T12:54:11;8.68;;;3.22;;
32637;SDS011;19045;52.268;10.506;2023-05-14T12:56:41;5.70;;;3.10;;
32637;SDS011;19045;52.268;10.506;2023-05-14T12:59:07;9.65;;;3.00;;
32637;SDS011;19045;52.268;10.506;2023-05-14T13:01:34;4.70;;;3.13;;
32637;SDS011;19045;52.268;10.506;2023-05-14T13:04:02;6.97;;;2.53;;
32637;SDS011;19045;52.268;10.506;2023-05-14T13:06:29;6.18;;;2.75;;
32637;SDS011;19045;52.268;10.506;2023-05-14T13:08:56;4.38;;;3.17;;
32637;SDS011;19045;52.268;10.506;2023-05-14T13:11:25;5.57;;;3.15;;
32637;SDS011;19045;52.268;10.506;2023-05-14T13:13:55;4.38;;;2.58;;
32637;SDS011;19045;52.268;10.506;2023-05-14T13:16:22;8.18;;;2.60;;
32637;SDS011;19045;52.268;10.506;2023-05-14T13:18:49;3.53;;;2.85;;
32637;SDS011;19045;52.268;10.506;2023-05-14T13:21:16;4.95;;;2.72;;
32637;SDS011;19045;52.268;10.506;2023-05-14T13:23:42;5.38;;;2.40;;
32637;SDS011;19045;52.268;10.506;2023-05-14T13:26:09;4.55;;;2.25;;
32637;SDS011;19045;52.268;10.506;2023-05-14T13:28:36;5.93;;;2.97;;
32637;SDS011;19045;52.268;10.506;2023-05-14T13:31:11;4.70;;;2.85;;
32637;SDS011;19045;52.268;10.506;2023-05-14T13:33:39;5.78;;;2.83;;
32637;SDS011;19045;52.268;10.506;2023-05-14T13:36:08;6.20;;;2.95;;
32637;SDS011;19045;52.268;10.506;2023-05-14T13:38:35;5.97;;;3.00;;
32637;SDS011;19045;52.268;10.506;2023-05-14T13:41:02;6.18;;;2.13;;
32637;SDS011;19045;52.268;10.506;2023-05-14T13:43:29;4.53;;;2.50;;
32637;SDS011;19045;52.268;10.506;2023-05-14T13:45:56;3.42;;;2.47;;
32637;SDS011;19045;52.268;10.506;2023-05-14T13:48:25;4.55;;;2.33;;
32637;SDS011;19045;52.268;10.506;2023-05-14T13:50:52;2.97;;;2.20;;
32637;SDS011;19045;52.268;10.506;2023-05-14T13:53:19;4.90;;;2.88;;
32637;SDS011;19045;52.268;10.506;2023-05-14T13:55:47;4.47;;;2.42;;
32637;SDS011;19045;52.268;10.506;2023-05-14T13:58:14;6.43;;;2.60;;
32637;SDS011;19045;52.268;10.506;2023-05-14T14:00:41;4.00;;;2.20;;
32637;SDS011;19045;52.268;10.506;2023-05-14T14:03:07;7.88;;;2.63;;
32637;SDS011;19045;52.268;10.506;2023-05-14T14:05:35;7.53;;;2.47;;
32637;SDS011;19045;52.268;10.506;2023-05-14T14:08:02;2.95;;;2.60;;
32637;SDS011;19045;52.268;10.506;2023-05-14T14:10:29;5.60;;;2.53;;
32637;SDS011;19045;52.268;10.506;2023-05-14T14:12:56;6.30;;;2.40;;
32637;SDS011;19045;52.268;10.506;2023-05-14T14:15:22;5.78;;;2.45;;
32637;SDS011;19045;52.268;10.506;2023-05-14T14:17:49;6.30;;;2.50;;
32637;SDS011;19045;52.268;10.506;2023-05-14T14:20:16;4.45;;;3.00;;
32637;SDS011;19045;52.268;10.506;2023-05-14T14:22:44;3.83;;;2.35;;
32637;SDS011;19045;52.268;10.506;2023-05-14T14:25:10;9.40;;;2.53;;
32637;SDS011;19045;52.268;10.506;2023-05-14T14:27:37;4.93;;;2.50;;
32637;SDS011;19045;52.268;10.506;2023-05-14T14:30:05;5.78;;;2.65;;
32637;SDS011;19045;52.268;10.506;2023-05-14T14:32:33;6.53;;;3.22;;
32637;SDS011;19045;52.268;10.506;2023-05-14T14:34:59;2.97;;;2.30;;
32637;SDS011;19045;52.268;10.506;2023-05-14T14:37:26;3.35;;;2.38;;
32637;SDS011;19045;52.268;10.506;2023-05-14T14:39:54;4.38;;;2.47;;